createdAt,value
2016-09-14T00:00:35.893Z,22.41
2016-09-14T00:01:46.208Z,22.46
2016-09-14T00:02:56.522Z,22.44
2016-09-14T00:04:06.822Z,22.42
2016-09-14T00:05:16.505Z,22.45
2016-09-14T00:06:26.856Z,22.38
2016-09-14T00:07:36.523Z,22.36
2016-09-14T00:08:46.821Z,22.42
2016-09-14T00:09:56.797Z,22.38
2016-09-14T00:11:06.783Z,22.24
2016-09-14T00:12:16.804Z,22.34
2016-09-14T00:13:26.806Z,22.36
2016-09-14T00:14:37.105Z,22.33
2016-09-14T00:15:47.090Z,22.27
2016-09-14T00:16:57.066Z,22.31
2016-09-14T00:18:07.347Z,22.27
2016-09-14T00:19:17.660Z,22.29
2016-09-14T00:20:27.650Z,22.29
2016-09-14T00:21:37.643Z,22.3
2016-09-14T00:22:47.929Z,22.34
2016-09-14T00:23:58.231Z,22.23
2016-09-14T00:25:08.533Z,22.31
2016-09-14T00:26:18.824Z,22.33
2016-09-14T00:27:28.807Z,22.27
2016-09-14T00:28:39.098Z,22.27
2016-09-14T00:29:49.389Z,22.16
2016-09-14T00:30:59.365Z,22.18
2016-09-14T00:32:09.650Z,22.15
2016-09-14T00:33:19.621Z,22.14
2016-09-14T00:34:29.905Z,22.08
2016-09-14T00:35:39.888Z,22.2
2016-09-14T00:36:49.254Z,22.22
2016-09-14T00:37:59.541Z,22.24
2016-09-14T00:39:09.215Z,22.23
2016-09-14T00:40:19.494Z,22.18
2016-09-14T00:41:29.466Z,22.12
2016-09-14T00:42:39.757Z,22.09
2016-09-14T00:43:50.046Z,22.16
2016-09-14T00:45:00.351Z,22.11
2016-09-14T00:46:10.030Z,22.12
2016-09-14T00:47:20.315Z,22.14
2016-09-14T00:48:29.997Z,22.15
2016-09-14T00:49:40.511Z,22.18
2016-09-14T00:50:50.485Z,22.08
2016-09-14T00:52:00.462Z,22
2016-09-14T00:53:09.824Z,21.99
2016-09-14T00:54:19.812Z,21.96
2016-09-14T01:01:51.227Z,21.92
2016-09-14T01:03:00.927Z,21.99
2016-09-14T01:04:11.205Z,21.94
2016-09-14T01:05:20.587Z,21.99
2016-09-14T01:06:30.876Z,21.99
2016-09-14T01:07:41.150Z,21.97
2016-09-14T01:08:50.822Z,21.94
2016-09-14T01:10:00.483Z,21.93
2016-09-14T01:11:10.760Z,21.9
2016-09-14T01:12:20.750Z,21.86
2016-09-14T01:13:31.044Z,21.83
2016-09-14T01:14:41.348Z,21.82
2016-09-14T01:15:51.026Z,21.82
2016-09-14T01:17:01.320Z,21.76
2016-09-14T01:18:11.605Z,21.82
2016-09-14T01:19:21.576Z,21.85
2016-09-14T01:20:31.554Z,21.85
2016-09-14T01:21:41.559Z,21.82
2016-09-14T01:22:51.848Z,21.74
2016-09-14T01:24:02.138Z,21.9
2016-09-14T01:25:12.121Z,21.83
2016-09-14T01:26:22.121Z,21.77
2016-09-14T01:27:31.794Z,21.82
2016-09-14T01:28:42.085Z,21.82
2016-09-14T01:29:52.068Z,21.8
2016-09-14T01:31:02.069Z,21.74
2016-09-14T01:32:12.045Z,21.8
2016-09-14T01:33:22.026Z,21.74
2016-09-14T01:34:31.699Z,21.64
2016-09-14T01:35:41.065Z,21.71
2016-09-14T01:36:51.352Z,21.71
2016-09-14T01:38:01.320Z,21.7
2016-09-14T01:39:11.307Z,21.56
2016-09-14T01:40:21.300Z,21.59
2016-09-14T01:41:31.589Z,21.67
2016-09-14T01:42:41.879Z,21.59
2016-09-14T01:43:51.254Z,21.64
2016-09-14T01:45:01.549Z,21.62
2016-09-14T01:46:11.521Z,21.58
2016-09-14T01:47:21.511Z,21.56
2016-09-14T01:48:31.799Z,21.64
2016-09-14T01:49:41.762Z,21.55
2016-09-14T01:50:51.742Z,21.59
2016-09-14T01:52:02.041Z,21.59
2016-09-14T01:53:12.043Z,21.53
2016-09-14T01:54:22.318Z,21.61
2016-09-14T01:55:31.993Z,21.61
2016-09-14T01:56:41.981Z,21.55
2016-09-14T01:57:51.658Z,21.55
2016-09-14T01:59:01.640Z,21.59
2016-09-14T02:00:11.643Z,21.56
2016-09-14T02:01:21.930Z,21.55
2016-09-14T02:02:31.969Z,21.58
2016-09-14T02:03:42.261Z,21.53
2016-09-14T02:04:52.548Z,21.53
2016-09-14T02:06:02.531Z,21.53
2016-09-14T02:07:12.854Z,21.56
2016-09-14T02:08:23.130Z,21.56
2016-09-14T02:09:33.419Z,21.55
2016-09-14T02:10:42.804Z,21.53
2016-09-14T02:11:52.773Z,21.66
2016-09-14T02:13:02.441Z,21.59
2016-09-14T02:14:12.736Z,21.56
2016-09-14T02:15:23.032Z,21.53
2016-09-14T02:16:33.334Z,21.55
2016-09-14T02:17:43.626Z,21.56
2016-09-14T02:18:53.913Z,21.59
2016-09-14T02:20:03.907Z,21.58
2016-09-14T02:21:13.892Z,21.56
2016-09-14T02:22:23.875Z,21.55
2016-09-14T02:23:34.174Z,21.61
2016-09-14T02:24:44.462Z,21.58
2016-09-14T02:25:54.452Z,21.52
2016-09-14T02:27:04.731Z,21.51
2016-09-14T02:28:14.716Z,21.48
2016-09-14T02:29:25.018Z,21.45
2016-09-14T02:30:35.010Z,21.43
2016-09-14T02:31:44.994Z,21.31
2016-09-14T02:32:54.974Z,21.37
2016-09-14T02:34:05.280Z,21.43
2016-09-14T02:35:15.568Z,21.41
2016-09-14T02:36:25.548Z,21.34
2016-09-14T02:37:35.844Z,21.3
2016-09-14T02:38:45.839Z,21.25
2016-09-14T02:39:55.826Z,21.37
2016-09-14T02:41:06.124Z,21.36
2016-09-14T02:42:16.101Z,21.18
2016-09-14T02:43:26.138Z,21.23
2016-09-14T02:44:36.459Z,21.21
2016-09-14T02:45:46.437Z,21.21
2016-09-14T02:46:56.735Z,21.21
2016-09-14T02:48:07.031Z,21.18
2016-09-14T02:49:16.391Z,21.21
2016-09-14T02:50:26.068Z,21.15
2016-09-14T02:51:36.356Z,21.18
2016-09-14T02:52:46.381Z,21.18
2016-09-14T02:53:56.698Z,21.23
2016-09-14T02:55:06.986Z,21.18
2016-09-14T02:56:16.957Z,21.19
2016-09-14T02:57:27.262Z,21.19
2016-09-14T02:58:36.935Z,21.27
2016-09-14T02:59:46.292Z,21.25
2016-09-14T03:32:13.543Z,17.94
2016-09-14T03:33:23.510Z,17.87
2016-09-14T03:34:33.184Z,17.81
2016-09-14T03:35:43.460Z,17.9
2016-09-14T03:36:53.743Z,17.96
2016-09-14T03:38:04.037Z,18.1
2016-09-14T03:39:14.333Z,18.19
2016-09-14T03:40:24.615Z,18.14
2016-09-14T03:41:34.587Z,18.38
2016-09-14T03:42:44.880Z,18.47
2016-09-14T03:43:54.562Z,18.54
2016-09-14T03:45:04.856Z,18.81
2016-09-14T03:46:14.515Z,18.9
2016-09-14T03:47:24.819Z,18.97
2016-09-14T03:48:35.112Z,19.12
2016-09-14T03:49:45.084Z,19.2
2016-09-14T03:50:55.060Z,19.43
2016-09-14T03:52:05.037Z,19.47
2016-09-14T03:53:15.329Z,19.57
2016-09-14T03:54:25.334Z,19.64
2016-09-14T03:55:35.637Z,19.8
2016-09-14T03:56:45.613Z,19.86
2016-09-14T03:57:54.972Z,19.92
2016-09-14T03:59:05.278Z,20.07
2016-09-14T04:00:15.563Z,20.11
2016-09-14T04:01:25.551Z,20.18
2016-09-14T04:02:35.847Z,20.16
2016-09-14T04:03:45.525Z,20.23
2016-09-14T04:04:55.506Z,20.27
2016-09-14T04:06:05.808Z,20.41
2016-09-14T04:07:16.115Z,20.29
2016-09-14T04:08:26.411Z,20.34
2016-09-14T04:09:36.692Z,20.44
2016-09-14T04:10:46.391Z,20.48
2016-09-14T04:11:56.683Z,20.46
2016-09-14T04:13:06.984Z,20.42
2016-09-14T04:14:16.979Z,20.51
2016-09-14T04:15:26.969Z,20.51
2016-09-14T04:16:36.959Z,20.58
2016-09-14T04:17:46.658Z,20.64
2016-09-14T04:18:56.632Z,20.6
2016-09-14T04:20:06.924Z,20.68
2016-09-14T04:21:17.223Z,20.64
2016-09-14T04:22:27.522Z,20.67
2016-09-14T04:23:37.503Z,20.64
2016-09-14T04:24:47.485Z,20.68
2016-09-14T04:25:57.787Z,20.71
2016-09-14T04:27:08.074Z,20.58
2016-09-14T04:28:18.052Z,20.67
2016-09-14T04:29:28.033Z,20.61
2016-09-14T04:30:38.323Z,20.68
2016-09-14T04:31:47.992Z,20.76
2016-09-14T04:32:58.337Z,20.75
2016-09-14T04:34:08.314Z,20.75
2016-09-14T04:35:18.296Z,20.67
2016-09-14T04:36:28.276Z,20.81
2016-09-14T04:37:37.953Z,20.79
2016-09-14T04:38:48.151Z,20.78
2016-09-14T04:39:58.129Z,20.81
2016-09-14T04:41:08.424Z,20.81
2016-09-14T04:42:18.401Z,20.88
2016-09-14T04:43:28.083Z,20.94
2016-09-14T04:44:38.374Z,20.93
2016-09-14T04:45:48.060Z,21.04
2016-09-14T04:46:58.029Z,21.03
2016-09-14T04:48:07.705Z,21.09
2016-09-14T04:49:17.389Z,21.19
2016-09-14T04:50:27.677Z,21.19
2016-09-14T04:51:37.049Z,21.15
2016-09-14T04:52:47.321Z,21.23
2016-09-14T04:53:57.609Z,21.16
2016-09-14T04:55:07.281Z,21.19
2016-09-14T04:56:17.279Z,21.22
2016-09-14T04:57:27.573Z,21.22
2016-09-14T04:58:37.249Z,21.27
2016-09-14T04:59:47.521Z,21.33
2016-09-14T05:00:57.865Z,21.37
2016-09-14T05:02:08.160Z,21.38
2016-09-14T05:03:18.150Z,21.41
2016-09-14T05:04:28.142Z,21.41
2016-09-14T05:05:38.134Z,21.49
2016-09-14T05:06:47.805Z,21.49
2016-09-14T05:07:57.487Z,21.59
2016-09-14T05:09:07.773Z,21.64
2016-09-14T05:10:18.062Z,21.53
2016-09-14T05:11:28.061Z,21.59
2016-09-14T05:12:37.425Z,21.59
2016-09-14T05:13:47.721Z,21.7
2016-09-14T05:14:57.693Z,21.68
2016-09-14T05:16:07.969Z,21.71
2016-09-14T05:17:17.947Z,21.86
2016-09-14T05:18:27.938Z,21.82
2016-09-14T05:19:37.915Z,21.97
2016-09-14T05:20:48.215Z,21.99
2016-09-14T05:21:57.888Z,21.94
2016-09-14T05:23:07.871Z,22.09
2016-09-14T05:24:18.158Z,22.14
2016-09-14T05:25:28.438Z,22.22
2016-09-14T05:26:38.730Z,22.31
2016-09-14T05:27:48.702Z,22.26
2016-09-14T05:28:58.684Z,22.42
2016-09-14T05:30:08.996Z,22.45
2016-09-14T05:31:19.212Z,22.51
2016-09-14T05:32:29.519Z,22.63
2016-09-14T05:33:39.548Z,22.67
2016-09-14T05:34:49.847Z,22.7
2016-09-14T05:36:00.142Z,22.86
2016-09-14T05:37:10.440Z,22.85
2016-09-14T05:38:20.719Z,22.89
2016-09-14T05:39:30.703Z,22.84
2016-09-14T05:40:40.685Z,22.91
2016-09-14T05:41:50.987Z,22.91
2016-09-14T05:43:01.264Z,23.01
2016-09-14T05:44:11.785Z,22.99
2016-09-14T05:45:22.095Z,22.92
2016-09-14T05:46:32.384Z,23.01
2016-09-14T05:47:42.367Z,22.92
2016-09-14T05:48:52.358Z,22.94
2016-09-14T05:50:02.645Z,22.99
2016-09-14T05:51:12.937Z,23.01
2016-09-14T05:52:22.918Z,23.04
2016-09-14T05:53:33.225Z,23.15
2016-09-14T05:54:43.220Z,23.15
2016-09-14T05:55:53.204Z,23.18
2016-09-14T05:57:02.913Z,23.21
2016-09-14T05:58:13.220Z,23.26
2016-09-14T05:59:22.893Z,23.24
2016-09-14T06:00:32.566Z,23.34
2016-09-14T06:01:42.857Z,23.35
2016-09-14T06:02:52.838Z,23.47
2016-09-14T06:04:03.129Z,23.44
2016-09-14T06:05:13.412Z,23.55
2016-09-14T06:06:23.393Z,23.53
2016-09-14T06:07:33.375Z,23.53
2016-09-14T06:08:43.356Z,23.67
2016-09-14T06:09:53.347Z,23.72
2016-09-14T06:11:03.649Z,23.7
2016-09-14T06:12:13.963Z,23.78
2016-09-14T06:13:24.254Z,23.81
2016-09-14T06:14:33.621Z,23.87
2016-09-14T06:15:43.913Z,23.84
2016-09-14T06:16:54.220Z,23.94
2016-09-14T06:18:04.201Z,24
2016-09-14T06:19:14.502Z,23.97
2016-09-14T06:20:24.475Z,24.07
2016-09-14T06:21:34.765Z,24.15
2016-09-14T06:22:45.042Z,24.15
2016-09-14T06:23:55.030Z,24.19
2016-09-14T06:25:05.015Z,24.27
2016-09-14T06:26:15.016Z,24.34
2016-09-14T06:27:25.299Z,24.37
2016-09-14T06:28:35.278Z,24.44
2016-09-14T06:29:45.247Z,24.51
2016-09-14T06:30:55.540Z,24.52
2016-09-14T06:32:05.524Z,24.58
2016-09-14T06:33:15.811Z,24.64
2016-09-14T06:34:25.802Z,24.67
2016-09-14T06:35:35.180Z,24.8
2016-09-14T06:36:45.167Z,24.75
2016-09-14T06:37:55.149Z,24.87
2016-09-14T06:39:05.467Z,24.89
2016-09-14T06:40:15.758Z,25.01
2016-09-14T06:41:26.062Z,25
2016-09-14T06:42:36.342Z,25.12
2016-09-14T06:43:46.629Z,25.12
2016-09-14T06:44:56.600Z,25.26
2016-09-14T06:46:06.576Z,25.26
2016-09-14T06:47:16.865Z,25.23
2016-09-14T06:48:27.143Z,25.27
2016-09-14T06:49:37.447Z,25.38
2016-09-14T06:50:47.741Z,25.44
2016-09-14T06:51:57.750Z,25.51
2016-09-14T06:53:07.743Z,25.56
2016-09-14T06:54:17.724Z,25.59
2016-09-14T06:55:27.707Z,25.6
2016-09-14T06:56:38.032Z,25.6
2016-09-14T06:57:48.029Z,25.63
2016-09-14T06:58:58.020Z,25.66
2016-09-14T07:00:08.311Z,25.6
2016-09-14T07:01:18.607Z,25.71
2016-09-14T07:02:28.601Z,25.79
2016-09-14T07:03:38.279Z,25.82
2016-09-14T07:04:48.569Z,25.84
2016-09-14T07:05:58.558Z,25.94
2016-09-14T07:07:08.856Z,26.04
2016-09-14T07:08:19.163Z,25.96
2016-09-14T07:09:29.164Z,26
2016-09-14T07:10:39.152Z,26.11
2016-09-14T07:11:49.133Z,26.16
2016-09-14T07:12:59.115Z,26.27
2016-09-14T07:14:09.098Z,26.27
2016-09-14T07:15:18.783Z,26.35
2016-09-14T07:16:28.771Z,26.32
2016-09-14T07:17:38.459Z,26.38
2016-09-14T07:18:48.749Z,26.3
2016-09-14T07:19:58.422Z,26.34
2016-09-14T07:21:08.408Z,26.39
2016-09-14T07:22:18.931Z,26.44
2016-09-14T07:23:29.217Z,26.41
2016-09-14T07:24:39.230Z,26.45
2016-09-14T07:25:49.245Z,26.52
2016-09-14T07:26:59.234Z,26.53
2016-09-14T07:28:09.218Z,26.54
2016-09-14T07:29:19.213Z,26.6
2016-09-14T07:30:29.201Z,26.61
2016-09-14T07:31:39.498Z,26.67
2016-09-14T07:32:49.485Z,26.71
2016-09-14T07:33:59.166Z,26.76
2016-09-14T07:35:09.140Z,26.76
2016-09-14T07:36:19.131Z,26.81
2016-09-14T07:37:29.135Z,26.91
2016-09-14T07:38:39.117Z,26.91
2016-09-14T07:39:49.414Z,26.96
2016-09-14T07:40:59.709Z,26.99
2016-09-14T07:42:10.014Z,26.94
2016-09-14T07:43:20.306Z,27.11
2016-09-14T07:44:30.277Z,27.06
2016-09-14T07:45:40.269Z,27.13
2016-09-14T07:46:50.242Z,27.11
2016-09-14T07:48:00.237Z,27.11
2016-09-14T07:49:10.770Z,27.16
2016-09-14T07:50:21.061Z,27.21
2016-09-14T07:51:31.349Z,27.37
2016-09-14T07:52:41.330Z,27.38
2016-09-14T07:53:51.631Z,27.42
2016-09-14T07:55:01.928Z,27.53
2016-09-14T07:56:11.926Z,27.49
2016-09-14T07:57:21.634Z,27.51
2016-09-14T07:58:31.942Z,27.64
2016-09-14T07:59:42.226Z,27.57
2016-09-14T08:00:51.902Z,27.68
2016-09-14T08:02:01.589Z,27.75
2016-09-14T08:03:11.885Z,27.69
2016-09-14T08:04:21.556Z,27.87
2016-09-14T08:05:31.234Z,27.84
2016-09-14T08:06:40.916Z,27.84
2016-09-14T08:07:50.895Z,27.98
2016-09-14T08:09:00.908Z,28.02
2016-09-14T08:10:11.210Z,28.05
2016-09-14T08:11:21.512Z,28.03
2016-09-14T08:12:32.278Z,28.06
2016-09-14T08:13:43.573Z,28.08
2016-09-14T08:14:53.920Z,28.17
2016-09-14T08:16:04.207Z,28.2
2016-09-14T08:17:14.569Z,28.33
2016-09-14T08:18:24.953Z,28.27
2016-09-14T08:19:35.100Z,28.3
2016-09-14T08:20:44.548Z,28.39
2016-09-14T08:21:54.902Z,28.42
2016-09-14T08:23:05.275Z,28.53
2016-09-14T08:24:15.652Z,28.61
2016-09-14T08:25:26.245Z,28.6
2016-09-14T08:26:35.959Z,28.67
2016-09-14T08:27:46.661Z,28.68
2016-09-14T08:28:57.255Z,28.67
2016-09-14T08:30:06.964Z,28.76
2016-09-14T08:31:16.694Z,28.78
2016-09-14T08:32:27.036Z,28.82
2016-09-14T08:33:36.738Z,28.85
2016-09-14T08:34:47.062Z,28.97
2016-09-14T08:35:57.443Z,28.95
2016-09-14T08:37:07.173Z,28.85
2016-09-14T08:38:16.870Z,29.03
2016-09-14T08:39:27.179Z,29.06
2016-09-14T08:40:37.186Z,29.14
2016-09-14T08:41:46.898Z,29.2
2016-09-14T08:42:56.909Z,29.23
2016-09-14T08:44:07.234Z,29.13
2016-09-14T08:45:16.938Z,29.23
2016-09-14T08:46:27.253Z,29.24
2016-09-14T08:47:37.256Z,29.2
2016-09-14T08:48:47.261Z,29.24
2016-09-14T08:49:56.957Z,29.39
2016-09-14T08:51:06.639Z,29.45
2016-09-14T08:52:16.655Z,29.51
2016-09-14T08:53:26.692Z,29.52
2016-09-14T08:54:36.685Z,29.6
2016-09-14T08:55:46.681Z,29.57
2016-09-14T08:56:56.077Z,29.5
2016-09-14T08:58:06.089Z,29.67
2016-09-14T08:59:16.105Z,29.66
2016-09-14T09:00:25.502Z,29.7
2016-09-14T09:01:35.789Z,29.61
2016-09-14T09:02:45.796Z,29.76
2016-09-14T09:03:56.089Z,29.77
2016-09-14T09:05:05.780Z,29.84
2016-09-14T09:06:16.111Z,29.89
2016-09-14T09:07:26.684Z,29.85
2016-09-14T09:08:36.375Z,29.94
2016-09-14T09:09:46.376Z,29.89
2016-09-14T09:10:56.699Z,29.87
2016-09-14T09:12:06.378Z,30.02
2016-09-14T09:13:16.692Z,30.03
2016-09-14T09:14:26.384Z,30.04
2016-09-14T09:15:36.079Z,30.09
2016-09-14T09:16:45.780Z,30.14
2016-09-14T09:17:55.788Z,30.29
2016-09-14T09:19:05.783Z,30.32
2016-09-14T09:20:15.782Z,30.45
2016-09-14T09:21:25.777Z,30.45
2016-09-14T09:22:36.080Z,30.51
2016-09-14T09:23:46.407Z,30.49
2016-09-14T09:24:56.408Z,30.44
2016-09-14T09:26:06.707Z,30.49
2016-09-14T09:27:16.725Z,30.54
2016-09-14T09:28:26.708Z,30.75
2016-09-14T09:29:37.030Z,30.73
2016-09-14T09:30:47.046Z,30.84
2016-09-14T09:31:57.400Z,30.85
2016-09-14T09:33:07.388Z,30.86
2016-09-14T09:34:17.375Z,30.89
2016-09-14T09:35:27.673Z,30.89
2016-09-14T09:36:37.998Z,30.96
2016-09-14T09:37:48.003Z,31.04
2016-09-14T09:38:58.312Z,31.04
2016-09-14T09:40:08.310Z,31.26
2016-09-14T09:41:18.645Z,31.25
2016-09-14T09:42:28.356Z,31.43
2016-09-14T09:43:38.667Z,31.38
2016-09-14T09:44:48.976Z,31.43
2016-09-14T09:45:59.313Z,31.44
2016-09-14T09:47:09.649Z,31.56
2016-09-14T09:48:19.967Z,31.52
2016-09-14T09:49:30.277Z,31.41
2016-09-14T09:50:40.309Z,31.45
2016-09-14T09:51:50.628Z,31.49
2016-09-14T09:53:00.931Z,31.47
2016-09-14T09:54:10.628Z,31.49
2016-09-14T09:55:20.692Z,31.65
2016-09-14T09:56:30.402Z,31.59
2016-09-14T09:57:40.392Z,31.67
2016-09-14T09:58:50.410Z,31.71
2016-09-14T10:00:00.725Z,31.78
2016-09-14T10:01:11.044Z,31.86
2016-09-14T10:02:21.063Z,31.88
2016-09-14T10:03:31.079Z,31.93
2016-09-14T10:04:41.392Z,31.95
2016-09-14T10:05:51.133Z,31.98
2016-09-14T10:07:01.452Z,31.91
2016-09-14T10:08:11.462Z,31.91
2016-09-14T10:09:21.472Z,32
2016-09-14T10:10:31.161Z,31.95
2016-09-14T10:11:41.179Z,32.01
2016-09-14T10:12:51.183Z,32.03
2016-09-14T10:14:01.499Z,32.05
2016-09-14T10:15:11.499Z,32.01
2016-09-14T10:16:21.495Z,32.09
2016-09-14T10:17:31.488Z,32.17
2016-09-14T10:18:41.489Z,32.23
2016-09-14T10:19:51.796Z,32.25
2016-09-14T10:21:01.800Z,31.94
2016-09-14T10:22:12.112Z,32.08
2016-09-14T10:23:22.422Z,32.12
2016-09-14T10:24:32.742Z,31.9
2016-09-14T10:25:43.074Z,32.12
2016-09-14T10:26:52.785Z,32.16
2016-09-14T10:28:02.797Z,32.3
2016-09-14T10:29:13.128Z,32.45
2016-09-14T10:30:23.133Z,32.49
2016-09-14T10:31:33.168Z,32.47
2016-09-14T10:32:43.188Z,32.59
2016-09-14T10:33:53.500Z,32.45
2016-09-14T10:35:03.815Z,32.5
2016-09-14T10:36:13.521Z,32.72
2016-09-14T10:37:23.526Z,32.74
2016-09-14T10:38:33.534Z,32.9
2016-09-14T10:39:43.535Z,32.98
2016-09-14T10:40:53.237Z,33.01
2016-09-14T10:42:02.938Z,33.21
2016-09-14T10:43:12.780Z,33.17
2016-09-14T10:44:22.881Z,33.31
2016-09-14T10:45:32.897Z,33.34
2016-09-14T10:46:42.595Z,33.23
2016-09-14T10:47:52.302Z,33.23
2016-09-14T10:49:02.011Z,33.26
2016-09-14T10:50:12.016Z,33.13
2016-09-14T10:51:22.037Z,33.21
2016-09-14T10:52:32.373Z,33.24
2016-09-14T10:53:42.091Z,33.32
2016-09-14T10:54:52.084Z,33.23
2016-09-14T10:56:01.767Z,33.31
2016-09-14T10:57:12.073Z,33.28
2016-09-14T10:58:22.408Z,33.28
2016-09-14T10:59:32.763Z,33.28
2016-09-14T11:00:43.080Z,33.12
2016-09-14T11:01:53.075Z,33.24
2016-09-14T11:03:03.087Z,33.18
2016-09-14T11:04:13.404Z,33.09
2016-09-14T11:05:23.722Z,33.26
2016-09-14T11:06:34.051Z,33.17
2016-09-14T11:07:44.043Z,33.21
2016-09-14T11:08:54.047Z,33.36
2016-09-14T11:10:04.367Z,33.41
2016-09-14T11:11:14.375Z,33.47
2016-09-14T11:12:24.714Z,33.53
2016-09-14T11:13:35.263Z,33.59
2016-09-14T11:14:45.568Z,33.55
2016-09-14T11:15:55.892Z,33.62
2016-09-14T11:17:06.195Z,33.61
2016-09-14T11:18:16.515Z,33.77
2016-09-14T11:19:26.824Z,33.78
2016-09-14T11:20:37.169Z,33.9
2016-09-14T11:21:47.481Z,34.02
2016-09-14T11:22:57.802Z,34.03
2016-09-14T11:24:08.135Z,34.11
2016-09-14T11:25:18.159Z,34.26
2016-09-14T11:26:28.466Z,34.19
2016-09-14T11:27:38.475Z,34.3
2016-09-14T11:28:48.799Z,34.36
2016-09-14T11:29:59.189Z,34.34
2016-09-14T11:31:09.503Z,34.3
2016-09-14T11:32:19.515Z,34.4
2016-09-14T11:33:29.842Z,34.32
2016-09-14T11:34:40.142Z,34.36
2016-09-14T11:35:49.861Z,34.3
2016-09-14T11:36:59.878Z,34.39
2016-09-14T11:38:10.180Z,34.32
2016-09-14T11:39:20.196Z,34.36
2016-09-14T11:40:30.506Z,34.37
2016-09-14T11:41:41.063Z,34.4
2016-09-14T11:42:51.062Z,34.33
2016-09-14T11:44:01.089Z,34.36
2016-09-14T11:45:11.398Z,34.43
2016-09-14T11:46:21.700Z,34.36
2016-09-14T11:47:32.013Z,34.29
2016-09-14T11:48:42.303Z,34.27
2016-09-14T11:49:52.612Z,34.32
2016-09-14T11:51:02.305Z,34.32
2016-09-14T11:52:12.307Z,34.36
2016-09-14T11:53:22.306Z,34.34
2016-09-14T11:54:32.629Z,34.36
2016-09-14T11:55:42.938Z,34.32
2016-09-14T11:56:52.352Z,34.17
2016-09-14T11:58:02.672Z,34.21
2016-09-14T11:59:13.021Z,34.19
2016-09-14T12:00:23.337Z,34.34
2016-09-14T12:01:33.670Z,34.33
2016-09-14T12:02:43.978Z,34.27
2016-09-14T12:03:54.295Z,34.41
2016-09-14T12:05:04.455Z,34.45
2016-09-14T12:06:14.782Z,34.46
2016-09-14T12:07:25.147Z,34.33
2016-09-14T12:08:35.452Z,34.33
2016-09-14T12:09:45.785Z,34.22
2016-09-14T12:10:55.798Z,34.33
2016-09-14T12:12:06.102Z,34.36
2016-09-14T12:13:16.111Z,34.3
2016-09-14T12:14:26.444Z,34.39
2016-09-14T12:15:36.759Z,34.45
2016-09-14T12:16:47.108Z,34.56
2016-09-14T12:17:57.426Z,34.63
2016-09-14T12:19:07.417Z,34.67
2016-09-14T12:20:17.431Z,34.69
2016-09-14T12:21:27.719Z,34.67
2016-09-14T12:22:38.041Z,34.63
2016-09-14T12:23:48.348Z,34.58
2016-09-14T12:24:58.684Z,34.56
2016-09-14T12:26:08.699Z,34.54
2016-09-14T12:27:19.016Z,34.51
2016-09-14T12:28:29.046Z,34.56
2016-09-14T12:29:39.380Z,34.63
2016-09-14T12:30:49.382Z,34.66
2016-09-14T12:31:59.064Z,34.56
2016-09-14T12:33:09.385Z,34.51
2016-09-14T12:34:19.708Z,34.52
2016-09-14T12:35:30.021Z,34.46
2016-09-14T12:36:40.013Z,34.49
2016-09-14T12:37:50.321Z,34.46
2016-09-14T12:39:00.668Z,34.4
2016-09-14T12:40:10.977Z,34.39
2016-09-14T12:41:20.980Z,34.43
2016-09-14T12:42:31.288Z,34.34
2016-09-14T12:43:41.617Z,34.4
2016-09-14T12:44:51.332Z,34.45
2016-09-14T12:46:01.327Z,34.41
2016-09-14T12:47:11.633Z,34.51
2016-09-14T12:48:21.638Z,34.49
2016-09-14T12:49:31.034Z,34.37
2016-09-14T12:50:41.327Z,34.41
2016-09-14T12:51:51.329Z,34.37
2016-09-14T12:53:01.283Z,34.36
2016-09-14T12:54:10.965Z,34.36
2016-09-14T12:55:20.674Z,34.37
2016-09-14T12:56:30.675Z,34.45
2016-09-14T12:57:40.686Z,34.58
2016-09-14T12:58:50.997Z,34.61
2016-09-14T13:00:00.704Z,34.66
2016-09-14T13:01:10.383Z,34.64
2016-09-14T13:02:20.823Z,34.55
2016-09-14T13:03:30.514Z,34.51
2016-09-14T13:04:40.515Z,34.46
2016-09-14T13:05:50.511Z,34.45
2016-09-14T13:07:00.806Z,34.46
2016-09-14T13:08:10.801Z,34.36
2016-09-14T13:09:21.094Z,34.4
2016-09-14T13:10:31.413Z,34.41
2016-09-14T13:11:41.728Z,34.39
2016-09-14T13:12:52.034Z,34.41
2016-09-14T13:14:02.347Z,34.43
2016-09-14T13:15:12.052Z,34.46
2016-09-14T13:16:22.371Z,34.51
2016-09-14T13:17:32.361Z,34.48
2016-09-14T13:18:42.713Z,34.46
2016-09-14T13:19:53.042Z,34.37
2016-09-14T13:21:03.350Z,34.39
2016-09-14T13:22:13.356Z,34.37
2016-09-14T13:23:23.389Z,34.39
2016-09-14T13:24:33.689Z,34.3
2016-09-14T13:25:43.380Z,34.45
2016-09-14T13:26:53.065Z,34.51
2016-09-14T13:28:02.777Z,34.58
2016-09-14T13:29:13.093Z,34.52
2016-09-14T13:30:23.395Z,34.54
2016-09-14T13:31:33.710Z,34.51
2016-09-14T13:32:44.019Z,34.41
2016-09-14T13:33:54.023Z,34.43
2016-09-14T13:35:04.267Z,34.49
2016-09-14T13:36:14.587Z,34.46
2016-09-14T13:37:24.606Z,34.4
2016-09-14T13:38:34.920Z,34.45
2016-09-14T13:39:45.293Z,34.37
2016-09-14T13:40:54.979Z,34.3
2016-09-14T13:42:05.327Z,34.36
2016-09-14T13:43:15.667Z,34.37
2016-09-14T13:44:25.979Z,34.34
2016-09-14T13:45:36.295Z,34.34
2016-09-14T13:46:46.289Z,34.4
2016-09-14T13:47:56.338Z,34.34
2016-09-14T13:49:06.676Z,34.3
2016-09-14T13:50:17.010Z,34.36
2016-09-14T13:51:27.327Z,34.26
2016-09-14T13:52:37.012Z,34.34
2016-09-14T13:53:47.030Z,34.27
2016-09-14T13:54:56.772Z,34.26
2016-09-14T13:56:07.088Z,34.29
2016-09-14T13:57:17.092Z,34.33
2016-09-14T13:58:27.087Z,34.22
2016-09-14T13:59:37.385Z,34.3
2016-09-14T14:00:47.706Z,34.3
2016-09-14T14:01:57.112Z,34.32
2016-09-14T14:03:07.423Z,34.21
2016-09-14T14:04:17.423Z,34.21
2016-09-14T14:05:27.430Z,34.24
2016-09-14T14:06:37.451Z,34.17
2016-09-14T14:07:47.171Z,34.18
2016-09-14T14:08:57.190Z,34.17
2016-09-14T14:10:06.884Z,34.05
2016-09-14T14:11:16.571Z,33.95
2016-09-14T14:12:26.564Z,34.02
2016-09-14T14:13:36.874Z,34.06
2016-09-14T14:14:46.880Z,34.06
2016-09-14T14:15:56.571Z,34.06
2016-09-14T14:17:06.895Z,33.99
2016-09-14T14:18:16.906Z,34.02
2016-09-14T14:19:27.217Z,33.97
2016-09-14T14:20:37.214Z,33.97
2016-09-14T14:21:46.600Z,34
2016-09-14T14:22:56.935Z,34.02
2016-09-14T14:24:06.944Z,33.96
2016-09-14T14:25:17.265Z,33.93
2016-09-14T14:26:27.267Z,33.9
2016-09-14T14:27:37.284Z,33.9
2016-09-14T14:28:47.585Z,33.81
2016-09-14T14:29:57.907Z,33.84
2016-09-14T14:31:07.622Z,33.84
2016-09-14T14:32:17.919Z,33.71
2016-09-14T14:33:28.245Z,33.77
2016-09-14T14:34:38.255Z,33.71
2016-09-14T14:35:48.260Z,33.58
2016-09-14T14:36:58.244Z,33.65
2016-09-14T14:38:08.568Z,33.61
2016-09-14T14:39:18.268Z,33.53
2016-09-14T14:40:28.332Z,33.5
2016-09-14T14:41:38.018Z,33.44
2016-09-14T14:42:47.401Z,33.37
2016-09-14T14:43:57.712Z,33.37
2016-09-14T14:45:07.707Z,33.34
2016-09-14T14:46:18.015Z,33.29
2016-09-14T14:47:28.317Z,33.34
2016-09-14T14:48:38.319Z,33.21
2016-09-14T14:49:48.352Z,33.21
2016-09-14T14:50:58.693Z,33.26
2016-09-14T14:52:08.688Z,33.16
2016-09-14T14:53:18.697Z,33.17
2016-09-14T14:54:28.696Z,33.21
2016-09-14T14:55:38.705Z,33.12
2016-09-14T14:56:49.016Z,33.08
2016-09-14T14:57:59.343Z,33.02
2016-09-14T14:59:09.651Z,33.01
2016-09-14T15:00:19.645Z,32.94
2016-09-14T15:01:29.680Z,32.9
2016-09-14T15:02:39.714Z,32.9
2016-09-14T15:03:50.083Z,32.87
2016-09-14T15:05:00.271Z,32.79
2016-09-14T15:06:10.309Z,32.67
2016-09-14T15:07:20.358Z,32.65
2016-09-14T15:08:30.688Z,32.71
2016-09-14T15:09:41.010Z,32.64
2016-09-14T15:10:50.757Z,32.61
2016-09-14T15:12:01.124Z,32.54
2016-09-14T15:13:11.160Z,32.57
2016-09-14T15:14:21.193Z,32.59
2016-09-14T15:15:30.899Z,32.49
2016-09-14T15:16:41.237Z,32.43
2016-09-14T15:17:50.960Z,32.5
2016-09-14T15:19:00.676Z,32.49
2016-09-14T15:20:10.696Z,32.35
2016-09-14T15:21:21.037Z,32.39
2016-09-14T15:22:31.055Z,32.37
2016-09-14T15:23:41.383Z,32.37
2016-09-14T15:24:51.705Z,32.32
2016-09-14T15:26:01.729Z,32.27
2016-09-14T15:27:11.776Z,32.3
2016-09-14T15:28:21.784Z,32.24
2016-09-14T15:29:31.767Z,32.16
2016-09-14T15:30:41.761Z,32.09
2016-09-14T15:31:51.747Z,32.05
2016-09-14T15:33:02.078Z,32.1
2016-09-14T15:34:12.381Z,32.05
2016-09-14T15:35:22.692Z,32.09
2016-09-14T15:36:32.698Z,32.05
2016-09-14T15:37:42.995Z,32.05
2016-09-14T15:38:53.296Z,32.06
2016-09-14T15:40:02.980Z,31.95
2016-09-14T15:41:13.202Z,32
2016-09-14T15:42:22.276Z,31.97
2016-09-14T15:43:32.285Z,31.98